Weather at Green Park Airport

Public forecast

Using degrees Celsius for public forecast. Weather courtesy of forecast.io.

Closest aviation weather report (METAR) to Green Park Airport

Closest report is Nakuru Airport, 24.1 nm (44.6 km) NNW.

2022/12/04 04:00 (retrieved 45 minutes ago)

HKNK 040400Z 00000KT CAVOK 13/12

Closest aviation forecast (TAF) to Green Park Airport

Forecast is more than 6 hours old.

Closest forecast is Jomo Kenyatta International Airport, 53.8 nm (99.7 km) SE.

2022/12/03 18:54 (retrieved 10 hours ago)

TAF TAF HKJK 031700Z 0318/0424 04010KT 9999 FEW022 BECMG 0320/0323 CAVOK BECMG 0408/0411 06015KT 9999 FEW025CB BKN026 BECMG 0420/0423 04005KT CAVOK